createdAt,value
2022-12-18T00:02:53.780Z,52.40
2022-12-18T00:05:57.844Z,54.75
2022-12-18T00:09:02.254Z,52.97
2022-12-18T00:15:18.351Z,58.05
2022-12-18T00:18:20.921Z,57.92
2022-12-18T00:21:24.859Z,54.33
2022-12-18T00:24:27.461Z,54.75
2022-12-18T00:27:29.956Z,53.13
2022-12-18T00:30:32.588Z,53.45
2022-12-18T00:33:36.960Z,61.53
2022-12-18T00:36:42.018Z,59.60
2022-12-18T00:39:44.852Z,56.60
2022-12-18T00:42:59.269Z,53.57
2022-12-18T00:46:01.968Z,62.78
2022-12-18T00:49:04.519Z,59.42
2022-12-18T00:52:08.781Z,57.28
2022-12-18T00:55:12.116Z,50.08
2022-12-18T00:58:17.029Z,59.23
2022-12-18T01:01:19.883Z,64.95
2022-12-18T01:04:22.659Z,55.97
2022-12-18T01:07:26.536Z,60.63
2022-12-18T01:10:29.084Z,69.22
2022-12-18T01:13:33.626Z,65.80
2022-12-18T01:16:36.222Z,55.25
2022-12-18T01:19:41.121Z,62.88
2022-12-18T01:22:47.659Z,62.65
2022-12-18T01:25:50.247Z,61.30
2022-12-18T01:28:54.742Z,59.93
2022-12-18T01:31:59.243Z,56.85
2022-12-18T01:35:01.957Z,57.70
2022-12-18T01:38:06.140Z,53.90
2022-12-18T01:41:09.531Z,56.53
2022-12-18T01:44:45.306Z,50.97
2022-12-18T01:47:50.561Z,50.65
2022-12-18T01:50:53.285Z,58.85
2022-12-18T01:53:58.470Z,54.70
2022-12-18T01:57:02.015Z,49.72
2022-12-18T02:00:08.200Z,57.53
2022-12-18T02:03:16.795Z,52.42
2022-12-18T02:06:28.525Z,52.30
2022-12-18T02:09:38.001Z,59.63
2022-12-18T02:12:46.464Z,54.50
2022-12-18T02:15:58.746Z,55.00
2022-12-18T02:19:06.819Z,57.97
2022-12-18T02:22:21.330Z,58.78
2022-12-18T02:25:41.269Z,50.10
2022-12-18T02:28:50.301Z,55.15
2022-12-18T02:31:55.311Z,49.97
2022-12-18T02:35:00.299Z,50.65
2022-12-18T02:38:05.680Z,61.72
2022-12-18T02:41:12.666Z,55.17
2022-12-18T02:44:16.758Z,55.00
2022-12-18T02:47:22.704Z,52.90
2022-12-18T02:50:32.769Z,51.60
2022-12-18T02:53:42.383Z,54.22
2022-12-18T02:56:52.023Z,56.72
2022-12-18T03:00:03.632Z,59.58
2022-12-18T03:03:12.223Z,56.67
2022-12-18T03:06:24.302Z,61.17
2022-12-18T03:09:33.130Z,59.95
2022-12-18T03:12:38.105Z,57.95
2022-12-18T03:15:46.444Z,62.53
2022-12-18T03:18:54.821Z,54.40
2022-12-18T03:21:59.634Z,55.17
2022-12-18T03:25:06.103Z,61.17
2022-12-18T03:28:14.147Z,61.63
2022-12-18T03:31:23.398Z,57.55
2022-12-18T03:34:31.797Z,60.63
2022-12-18T03:37:37.839Z,60.80
2022-12-18T03:40:57.938Z,61.40
2022-12-18T03:44:08.623Z,53.97
2022-12-18T03:47:16.466Z,55.03
2022-12-18T03:50:27.276Z,57.33
2022-12-18T03:53:41.359Z,53.92
2022-12-18T03:56:49.303Z,61.63
2022-12-18T03:59:57.299Z,55.53
2022-12-18T04:03:06.968Z,56.75
2022-12-18T04:06:18.500Z,56.63
2022-12-18T04:09:22.094Z,67.85
2022-12-18T04:12:26.073Z,57.28
2022-12-18T04:15:29.015Z,58.90
2022-12-18T04:18:34.157Z,62.70
2022-12-18T04:21:37.844Z,59.73
2022-12-18T04:24:40.869Z,62.03
2022-12-18T04:27:50.635Z,62.20
2022-12-18T04:30:53.929Z,58.97
2022-12-18T04:33:59.609Z,62.50
2022-12-18T04:37:02.396Z,56.77
2022-12-18T04:40:06.957Z,63.00
2022-12-18T04:43:16.185Z,61.03
2022-12-18T04:46:18.770Z,58.47
2022-12-18T04:49:22.713Z,56.50
2022-12-18T04:52:25.316Z,59.00
2022-12-18T04:55:28.460Z,62.70
2022-12-18T04:58:31.068Z,54.83
2022-12-18T05:01:35.364Z,53.40
2022-12-18T05:04:40.685Z,54.10
2022-12-18T05:07:43.245Z,66.70
2022-12-18T05:10:45.847Z,72.30
2022-12-18T05:13:48.771Z,76.93
2022-12-18T05:16:51.366Z,82.75
2022-12-18T05:19:55.327Z,82.72
2022-12-18T05:22:57.962Z,75.87
2022-12-18T05:26:02.057Z,85.32
2022-12-18T05:29:04.715Z,80.40
2022-12-18T05:32:07.202Z,79.45
2022-12-18T05:35:12.274Z,75.10
2022-12-18T05:38:14.943Z,67.93
2022-12-18T05:41:17.591Z,77.57
2022-12-18T05:44:20.082Z,74.85
2022-12-18T05:47:22.590Z,71.25
2022-12-18T05:50:26.582Z,64.50
2022-12-18T05:53:29.257Z,69.63
2022-12-18T05:56:31.824Z,67.45
2022-12-18T05:59:34.892Z,75.30
2022-12-18T06:02:37.591Z,71.47
2022-12-18T06:05:43.161Z,75.35
2022-12-18T06:08:46.919Z,76.20
2022-12-18T06:11:49.701Z,80.88
2022-12-18T06:14:52.178Z,80.38
2022-12-18T06:17:54.742Z,77.90
2022-12-18T06:20:59.746Z,76.93
2022-12-18T06:24:02.320Z,76.57
2022-12-18T06:27:04.897Z,74.38
2022-12-18T06:30:08.900Z,78.82
2022-12-18T06:33:11.486Z,90.82
2022-12-18T06:36:15.666Z,105.85
2022-12-18T06:39:18.315Z,104.23
2022-12-18T06:42:20.875Z,112.40
2022-12-18T06:45:23.393Z,119.28
2022-12-18T06:48:25.920Z,115.20
2022-12-18T06:51:30.463Z,159.77
2022-12-18T06:54:32.991Z,162.27
2022-12-18T06:57:35.610Z,165.88
2022-12-18T07:00:38.246Z,161.38
2022-12-18T07:03:42.504Z,143.73
2022-12-18T07:06:46.892Z,113.70
2022-12-18T07:09:50.792Z,111.67
2022-12-18T07:12:53.336Z,109.75
2022-12-18T07:15:55.889Z,109.70
2022-12-18T07:18:58.484Z,98.10
2022-12-18T07:22:02.742Z,121.53
2022-12-18T07:25:07.314Z,123.57
2022-12-18T07:28:15.680Z,119.78
2022-12-18T07:31:22.094Z,133.30
2022-12-18T07:34:24.870Z,159.48
2022-12-18T07:37:30.095Z,180.48
2022-12-18T07:40:33.037Z,169.43
2022-12-18T07:43:36.869Z,174.85
2022-12-18T07:46:40.057Z,165.70
2022-12-18T07:49:42.840Z,155.02
2022-12-18T07:52:46.860Z,150.35
2022-12-18T07:56:24.886Z,134.93
2022-12-18T07:59:12.016Z,98.13
2022-12-18T08:02:14.744Z,88.03
2022-12-18T08:05:17.796Z,82.10
2022-12-18T08:08:21.651Z,80.22
2022-12-18T08:11:26.559Z,100.83
2022-12-18T08:14:29.549Z,93.65
2022-12-18T08:17:32.167Z,90.43
2022-12-18T08:20:34.791Z,95.05
2022-12-18T08:23:42.658Z,94.18
2022-12-18T08:27:06.740Z,92.60
2022-12-18T08:30:10.496Z,83.45
2022-12-18T08:33:13.227Z,85.30
2022-12-18T08:36:15.766Z,89.22
2022-12-18T08:39:19.843Z,101.38
2022-12-18T08:42:40.737Z,84.20
2022-12-18T08:45:43.315Z,74.28
2022-12-18T08:48:46.416Z,66.72
2022-12-18T08:51:49.399Z,67.15
2022-12-18T08:54:53.375Z,60.67
2022-12-18T08:57:55.961Z,55.10
2022-12-18T09:01:01.232Z,68.65
2022-12-18T09:04:04.535Z,57.10
2022-12-18T09:07:08.627Z,60.95
2022-12-18T09:10:13.218Z,56.22
2022-12-18T09:13:17.486Z,52.87
2022-12-18T09:16:20.793Z,63.53
2022-12-18T09:19:23.611Z,60.90
2022-12-18T09:22:26.378Z,60.35
2022-12-18T09:25:36.659Z,64.45
2022-12-18T09:28:39.819Z,71.07
2022-12-18T09:31:42.879Z,62.13
2022-12-18T09:34:45.465Z,64.07
2022-12-18T09:37:48.117Z,65.80
2022-12-18T09:40:53.939Z,67.80
2022-12-18T09:44:01.576Z,70.90
2022-12-18T09:47:14.212Z,66.88
2022-12-18T09:50:25.872Z,64.75
2022-12-18T09:53:34.096Z,68.32
2022-12-18T09:56:42.434Z,64.40
2022-12-18T09:59:50.015Z,64.50
2022-12-18T10:02:54.211Z,60.72
2022-12-18T10:06:07.644Z,61.30
2022-12-18T10:09:20.250Z,59.97
2022-12-18T10:12:30.791Z,71.93
2022-12-18T10:15:40.000Z,52.10
2022-12-18T10:19:03.684Z,53.20
2022-12-18T10:22:18.889Z,50.20
2022-12-18T10:25:25.891Z,52.05
2022-12-18T10:28:31.298Z,52.55
2022-12-18T10:31:33.915Z,49.43
2022-12-18T10:34:36.529Z,51.05
2022-12-18T10:38:06.913Z,50.78
2022-12-18T10:41:29.445Z,44.95
2022-12-18T10:44:33.468Z,55.05
2022-12-18T10:47:36.316Z,48.90
2022-12-18T10:54:04.675Z,51.92
2022-12-18T10:57:16.826Z,55.72
2022-12-18T11:00:31.353Z,59.33
2022-12-18T11:03:39.213Z,49.93
2022-12-18T11:06:55.302Z,60.05
2022-12-18T11:10:02.102Z,56.67
2022-12-18T11:13:19.690Z,53.28
2022-12-18T11:16:24.896Z,50.80
2022-12-18T11:19:33.092Z,45.20
2022-12-18T11:22:39.206Z,50.65
2022-12-18T11:25:53.273Z,53.00
2022-12-18T11:29:10.797Z,47.78
2022-12-18T11:32:30.893Z,40.20
2022-12-18T11:35:48.077Z,40.83
2022-12-18T11:38:54.396Z,43.53
2022-12-18T11:42:10.157Z,42.35
2022-12-18T11:45:28.644Z,53.45
2022-12-18T11:48:37.688Z,46.80
2022-12-18T11:51:48.412Z,41.87
2022-12-18T11:54:53.550Z,46.08
2022-12-18T11:58:04.253Z,50.80
2022-12-18T12:01:17.748Z,47.75
2022-12-18T12:04:40.254Z,47.15
2022-12-18T12:07:53.012Z,43.40
2022-12-18T12:11:06.998Z,46.88
2022-12-18T12:14:41.861Z,45.65
2022-12-18T12:17:53.788Z,41.85
2022-12-18T12:21:07.290Z,39.35
2022-12-18T12:24:24.634Z,42.97
2022-12-18T12:27:37.746Z,43.08
2022-12-18T12:30:53.972Z,43.30
2022-12-18T12:34:06.047Z,44.80
2022-12-18T12:37:25.303Z,52.72
2022-12-18T12:41:02.813Z,48.97
2022-12-18T12:43:57.163Z,44.28
2022-12-18T12:47:07.989Z,45.08
2022-12-18T12:50:16.131Z,46.90
2022-12-18T12:53:30.136Z,47.25
2022-12-18T12:56:41.020Z,46.67
2022-12-18T12:59:53.419Z,48.22
2022-12-18T13:03:04.776Z,47.85
2022-12-18T13:06:13.845Z,45.10
2022-12-18T13:09:18.553Z,44.10
2022-12-18T13:12:39.788Z,45.97
2022-12-18T13:15:46.207Z,41.90
2022-12-18T13:18:51.571Z,49.38
2022-12-18T13:21:56.006Z,38.40
2022-12-18T13:25:00.874Z,43.55
2022-12-18T13:28:07.614Z,42.60
2022-12-18T13:31:10.238Z,40.85
2022-12-18T13:34:27.413Z,43.33
2022-12-18T13:37:44.060Z,52.60
2022-12-18T13:40:58.763Z,39.20
2022-12-18T13:44:12.870Z,37.13
2022-12-18T13:47:29.207Z,38.53
2022-12-18T13:50:35.879Z,42.70
2022-12-18T13:53:44.375Z,51.10
2022-12-18T13:56:50.400Z,50.72
2022-12-18T13:59:53.581Z,55.87
2022-12-18T14:02:56.837Z,41.42
2022-12-18T14:06:03.520Z,43.72
2022-12-18T14:09:06.338Z,48.28
2022-12-18T14:12:40.104Z,61.55
2022-12-18T14:15:47.500Z,54.60
2022-12-18T14:18:58.144Z,59.90
2022-12-18T14:22:05.592Z,65.53
2022-12-18T14:25:19.993Z,83.50
2022-12-18T14:28:24.663Z,66.95
2022-12-18T14:31:30.379Z,65.47
2022-12-18T14:34:32.991Z,71.22
2022-12-18T14:37:35.505Z,58.97
2022-12-18T14:40:38.114Z,49.53
2022-12-18T14:43:44.404Z,115.63
2022-12-18T14:46:48.616Z,91.03
2022-12-18T14:49:51.448Z,90.60
2022-12-18T14:52:54.095Z,91.22
2022-12-18T14:55:56.939Z,98.55
2022-12-18T14:59:04.344Z,100.10
2022-12-18T15:02:18.053Z,108.13
2022-12-18T15:05:25.567Z,105.75
2022-12-18T15:08:36.632Z,97.53
2022-12-18T15:11:47.199Z,113.55
2022-12-18T15:14:51.109Z,109.30
2022-12-18T15:18:05.083Z,120.37
2022-12-18T15:21:10.612Z,134.95
2022-12-18T15:24:19.059Z,130.48
2022-12-18T15:27:25.386Z,152.70
2022-12-18T15:30:29.725Z,147.55
2022-12-18T15:33:34.895Z,164.90
2022-12-18T15:36:37.584Z,174.63
2022-12-18T15:39:40.357Z,161.60
2022-12-18T15:43:02.643Z,153.80
2022-12-18T15:46:10.847Z,149.43
2022-12-18T15:49:32.161Z,132.93
2022-12-18T15:52:41.235Z,162.63
2022-12-18T15:56:03.852Z,132.90
2022-12-18T15:59:12.208Z,155.32
2022-12-18T16:02:19.165Z,163.18
2022-12-18T16:05:26.933Z,163.87
2022-12-18T16:08:30.857Z,170.27
2022-12-18T16:11:40.099Z,183.27
2022-12-18T16:14:42.923Z,161.75
2022-12-18T16:17:47.913Z,177.73
2022-12-18T16:20:50.663Z,170.10
2022-12-18T16:23:53.495Z,169.13
2022-12-18T16:26:58.689Z,169.38
2022-12-18T16:30:01.298Z,175.30
2022-12-18T16:33:05.853Z,189.75
2022-12-18T16:36:10.403Z,183.67
2022-12-18T16:39:12.928Z,199.18
2022-12-18T16:42:20.003Z,220.70
2022-12-18T16:45:23.281Z,246.68
2022-12-18T16:48:30.243Z,333.77
2022-12-18T16:51:37.096Z,258.63
2022-12-18T16:54:40.328Z,228.90
2022-12-18T16:57:43.172Z,215.43
2022-12-18T17:00:46.064Z,225.43
2022-12-18T17:03:56.102Z,230.98
2022-12-18T17:06:59.024Z,222.97
2022-12-18T17:10:01.851Z,217.52
2022-12-18T17:13:04.610Z,229.50
2022-12-18T17:16:08.199Z,235.70
2022-12-18T17:19:17.096Z,223.32
2022-12-18T17:22:20.630Z,226.43
2022-12-18T17:25:23.562Z,234.18
2022-12-18T17:28:28.543Z,256.88
2022-12-18T17:31:31.806Z,243.18
2022-12-18T17:34:37.048Z,248.32
2022-12-18T17:37:40.043Z,243.83
2022-12-18T17:40:46.206Z,239.55
2022-12-18T17:43:51.921Z,245.73
2022-12-18T17:46:54.795Z,256.90
2022-12-18T17:49:59.113Z,263.45
2022-12-18T17:53:02.156Z,271.53
2022-12-18T17:56:06.374Z,252.32
2022-12-18T17:59:10.885Z,251.77
2022-12-18T18:02:13.764Z,219.48
2022-12-18T18:05:18.274Z,220.30
2022-12-18T18:08:20.809Z,212.37
2022-12-18T18:11:43.695Z,247.27
2022-12-18T18:14:46.339Z,237.45
2022-12-18T18:17:49.479Z,273.80
2022-12-18T18:20:54.059Z,252.07
2022-12-18T18:24:00.082Z,261.50
2022-12-18T18:27:02.955Z,255.20
2022-12-18T18:30:07.783Z,274.02
2022-12-18T18:33:12.149Z,297.55
2022-12-18T18:36:16.459Z,295.50
2022-12-18T18:39:19.549Z,265.77
2022-12-18T18:42:22.279Z,247.63
2022-12-18T18:45:24.878Z,255.40
2022-12-18T18:48:29.781Z,246.80
2022-12-18T18:51:36.400Z,230.50
2022-12-18T18:54:51.923Z,247.83
2022-12-18T18:58:02.491Z,223.90
2022-12-18T19:01:10.422Z,229.32
2022-12-18T19:04:13.433Z,241.80
2022-12-18T19:07:24.318Z,254.48
2022-12-18T19:10:33.470Z,233.40
2022-12-18T19:13:36.293Z,225.48
2022-12-18T19:16:39.959Z,227.73
2022-12-18T19:19:43.047Z,214.60
2022-12-18T19:22:50.723Z,215.43
2022-12-18T19:26:16.964Z,228.83
2022-12-18T19:29:23.056Z,222.00
2022-12-18T19:32:26.076Z,234.07
2022-12-18T19:35:29.791Z,220.18
2022-12-18T19:38:34.403Z,224.98
2022-12-18T19:41:36.990Z,217.67
2022-12-18T19:44:41.463Z,226.82
2022-12-18T19:47:44.162Z,219.98
2022-12-18T19:50:46.742Z,239.35
2022-12-18T19:53:56.615Z,226.88
2022-12-18T19:57:02.550Z,230.43
2022-12-18T20:00:06.091Z,243.23
2022-12-18T20:03:25.314Z,226.27
2022-12-18T20:06:45.301Z,242.43
2022-12-18T20:09:53.899Z,301.50
2022-12-18T20:13:02.547Z,249.00
2022-12-18T20:16:05.625Z,242.07
2022-12-18T20:19:09.678Z,242.82
2022-12-18T20:22:12.473Z,238.63
2022-12-18T20:25:16.886Z,210.68
2022-12-18T20:28:19.774Z,203.60
2022-12-18T20:31:22.725Z,190.02
2022-12-18T20:34:25.469Z,159.55
2022-12-18T20:37:28.933Z,156.73
2022-12-18T20:40:35.875Z,158.55
2022-12-18T20:43:39.201Z,148.20
2022-12-18T20:46:42.358Z,123.30
2022-12-18T20:49:45.247Z,120.40
2022-12-18T20:52:48.743Z,120.15
2022-12-18T20:55:52.730Z,113.05
2022-12-18T20:58:56.804Z,116.07
2022-12-18T21:01:59.887Z,125.38
2022-12-18T21:05:02.684Z,127.25
2022-12-18T21:08:05.732Z,129.00
2022-12-18T21:11:43.620Z,143.32
2022-12-18T21:14:46.391Z,124.03
2022-12-18T21:17:50.836Z,121.88
2022-12-18T21:20:53.417Z,124.50
2022-12-18T21:23:56.124Z,112.97
2022-12-18T21:27:00.052Z,105.65
2022-12-18T21:30:03.009Z,97.60
2022-12-18T21:33:05.799Z,124.80
2022-12-18T21:36:09.700Z,122.07
2022-12-18T21:39:12.764Z,138.57
2022-12-18T21:42:35.058Z,175.85
2022-12-18T21:45:37.538Z,161.00
2022-12-18T21:48:40.657Z,141.02
2022-12-18T21:51:43.722Z,128.02
2022-12-18T21:54:46.370Z,122.75
2022-12-18T21:57:50.306Z,127.18
2022-12-18T22:00:53.063Z,132.53
2022-12-18T22:03:55.720Z,127.00
2022-12-18T22:06:58.382Z,133.55
2022-12-18T22:10:02.084Z,135.52
2022-12-18T22:13:08.679Z,144.40
2022-12-18T22:16:11.275Z,132.63
2022-12-18T22:19:14.161Z,139.93
2022-12-18T22:22:17.529Z,136.02
2022-12-18T22:25:20.099Z,134.57
2022-12-18T22:28:42.963Z,136.90
2022-12-18T22:31:45.754Z,135.73
2022-12-18T22:34:48.401Z,131.43
2022-12-18T22:37:51.033Z,119.35
2022-12-18T22:40:54.816Z,120.57
2022-12-18T22:43:58.830Z,117.30
2022-12-18T22:47:06.928Z,118.67
2022-12-18T22:50:11.935Z,103.13
2022-12-18T22:53:14.484Z,105.95
2022-12-18T22:56:21.283Z,95.80
2022-12-18T22:59:26.960Z,89.72
2022-12-18T23:02:29.658Z,86.03
2022-12-18T23:05:32.366Z,86.32
2022-12-18T23:08:35.152Z,94.00
2022-12-18T23:11:37.802Z,91.32
2022-12-18T23:14:41.816Z,92.05
2022-12-18T23:17:44.348Z,90.60
2022-12-18T23:20:46.952Z,87.22
2022-12-18T23:23:50.484Z,98.78
2022-12-18T23:26:53.017Z,97.70
2022-12-18T23:29:56.934Z,95.25
2022-12-18T23:33:01.343Z,87.57
2022-12-18T23:36:04.989Z,91.10
2022-12-18T23:39:07.601Z,85.05
2022-12-18T23:42:10.111Z,80.60
2022-12-18T23:45:17.522Z,99.53
2022-12-18T23:48:21.209Z,96.57
2022-12-18T23:51:25.656Z,102.65
2022-12-18T23:54:33.102Z,104.35
2022-12-18T23:57:36.171Z,102.95
